Abbot, Maine
Current Conditions -  °F | °C
As of 10:15 AM on Saturday 22 Nov 2014 (Local Time) from KWVL Reporting Station
Overcast Overcast  
Wind Chill: 15°   Ceiling: 10000
Heat Index: 25°   Visibility: 10mi
Dew Point:   Wind: 9mph
Humidity: 50%   Direction: 210°SSW
Pressure: 30.18"   Gusts: NA
Location:  44.94°N, 69.7°W
Report Text: KWVL 221515Z 21008KT 10SM OVC100 M04/M13 A3018 RMK AO1
Loading
Personal Weather Stations






























Interactive Weather Map New forecast layout! Learn more

10-Day Weather Forecast

Advertisements
Track Severe Weather on mobile